Time;durP1;ratioP1;P1;durP2;ratioP2;P2;SDS_P1;SDS_P2;PMS_P1;PMS_P2;Temp;Humidity;BMP_temperature;BMP_pressure;BME280_temperature;BME280_humidity;BME280_pressure;Samples;Min_cycle;Max_cycle;Signal;HPM_P1;HPM_P2
2022/08/05 00:01:39;;;;;;;6.40;2.90;;;22.20;83.90;;;;;;5021922;28;20026;-93
2022/08/05 00:04:05;;;;;;;3.78;2.72;;;22.10;83.40;;;;;;5011877;28;20036;-91
2022/08/05 00:06:31;;;;;;;5.32;2.90;;;22.10;84.60;;;;;;4999344;28;20125;-92
2022/08/05 00:08:57;;;;;;;2.47;2.28;;;22.00;84.60;;;;;;5009338;28;20030;-91
2022/08/05 00:11:23;;;;;;;4.07;2.47;;;22.00;85.20;;;;;;5018557;28;20040;-92
2022/08/05 00:13:48;;;;;;;6.97;2.75;;;21.90;86.20;;;;;;5012721;28;20034;-91
2022/08/05 00:16:15;;;;;;;6.40;2.72;;;21.90;86.20;;;;;;5015848;28;20076;-91
2022/08/05 00:18:44;;;;;;;3.65;2.58;;;21.90;87.70;;;;;;5008139;28;20473;-91
2022/08/05 00:21:11;;;;;;;4.50;2.33;;;21.90;89.10;;;;;;5007434;28;20050;-92
2022/08/05 00:23:37;;;;;;;4.68;2.60;;;22.00;88.60;;;;;;5009768;28;20014;-91
2022/08/05 00:26:03;;;;;;;3.53;2.70;;;21.90;89.40;;;;;;5007121;28;20025;-92
2022/08/05 00:28:29;;;;;;;6.13;2.75;;;22.10;85.00;;;;;;5011803;28;20034;-89
2022/08/05 00:30:54;;;;;;;4.57;2.85;;;22.40;83.50;;;;;;5029462;28;20061;-91
2022/08/05 00:33:20;;;;;;;11.00;3.10;;;22.50;82.90;;;;;;5015943;28;20030;-89
2022/08/05 00:35:46;;;;;;;4.80;3.15;;;22.90;79.50;;;;;;5016537;28;20025;-91
2022/08/05 00:38:11;;;;;;;7.65;3.80;;;23.20;79.20;;;;;;5018192;28;20018;-91
2022/08/05 00:40:53;;;;;;;12.05;3.22;;;23.50;79.50;;;;;;5002107;28;20030;-92
2022/08/05 00:43:19;;;;;;;4.82;3.75;;;23.80;79.80;;;;;;5004173;28;20432;-92
2022/08/05 00:45:46;;;;;;;6.78;3.70;;;23.90;80.40;;;;;;5014442;28;20030;-91
2022/08/05 00:48:15;;;;;;;6.50;3.88;;;23.90;82.40;;;;;;5011222;28;20037;-92
2022/08/05 00:50:42;;;;;;;6.72;3.63;;;23.80;83.10;;;;;;5002535;28;20030;-91
2022/08/05 00:53:09;;;;;;;5.55;3.75;;;23.80;84.60;;;;;;5009764;28;20452;-91
2022/08/05 00:55:35;;;;;;;5.53;3.33;;;23.70;87.00;;;;;;5014617;28;20037;-92
2022/08/05 00:58:01;;;;;;;13.63;3.30;;;23.60;87.00;;;;;;5029920;28;20021;-89
2022/08/05 01:00:28;;;;;;;10.05;3.65;;;23.60;88.00;;;;;;5013717;28;20390;-91
2022/08/05 01:02:55;;;;;;;7.28;3.47;;;23.60;90.60;;;;;;5012503;28;20022;-91
2022/08/05 01:05:21;;;;;;;14.50;3.72;;;23.50;91.30;;;;;;5009356;28;20028;-90
2022/08/05 01:07:47;;;;;;;11.43;4.05;;;23.40;92.40;;;;;;5009716;28;20026;-89
2022/08/05 01:10:15;;;;;;;8.55;3.53;;;23.30;93.90;;;;;;5010222;28;20041;-90
2022/08/05 01:12:51;;;;;;;8.77;3.75;;;23.30;94.80;;;;;;4997081;28;20064;-90
2022/08/05 01:15:22;;;;;;;12.65;4.60;;;23.20;96.00;;;;;;5010975;28;20029;-93
2022/08/05 01:17:54;;;;;;;8.80;4.00;;;23.10;97.60;;;;;;5013461;28;20037;-89
2022/08/05 01:20:28;;;;;;;8.68;3.90;;;23.00;99.40;;;;;;5012511;28;20029;-91
2022/08/05 01:23:22;;;;;;;13.02;3.60;;;22.90;99.90;;;;;;5006583;28;20526;-91
2022/08/05 01:26:30;;;;;;;15.23;3.83;;;22.80;99.90;;;;;;5017345;28;20053;-95
2022/08/05 01:28:59;;;;;;;6.20;3.80;;;22.70;99.90;;;;;;5003787;28;20129;-92
2022/08/05 01:31:28;;;;;;;21.52;4.55;;;22.60;99.90;;;;;;5019977;28;20017;-92
2022/08/05 01:34:14;;;;;;;13.30;5.25;;;22.60;99.90;;;;;;4999479;28;20034;-90
2022/08/05 01:36:52;;;;;;;10.57;4.50;;;22.50;99.90;;;;;;5011737;28;20042;-91
2022/08/05 01:39:20;;;;;;;20.45;4.38;;;22.50;99.90;;;;;;5032500;28;20025;-90
2022/08/05 01:41:47;;;;;;;8.65;4.50;;;22.50;99.90;;;;;;5012202;28;20462;-91
2022/08/05 01:44:15;;;;;;;12.32;4.75;;;22.50;99.90;;;;;;5009842;28;20046;-89
2022/08/05 01:46:42;;;;;;;7.75;4.97;;;22.40;99.90;;;;;;5009878;28;20469;-88
2022/08/05 01:49:12;;;;;;;12.23;6.32;;;22.40;99.90;;;;;;5018095;28;20030;-91
2022/08/05 01:51:39;;;;;;;8.68;5.00;;;22.30;99.90;;;;;;5009948;28;20037;-91
2022/08/05 01:54:07;;;;;;;11.15;5.30;;;22.40;99.90;;;;;;5005076;28;20018;-89
2022/08/05 01:56:38;;;;;;;13.50;5.13;;;22.30;99.90;;;;;;5019725;28;20033;-91
2022/08/05 01:59:08;;;;;;;10.05;5.43;;;22.30;99.90;;;;;;5005035;28;20109;-90
2022/08/05 02:01:35;;;;;;;9.45;5.32;;;22.30;99.90;;;;;;4999149;28;20090;-89
2022/08/05 02:04:25;;;;;;;9.50;5.18;;;22.30;99.90;;;;;;5014798;28;20040;-91
2022/08/05 02:06:51;;;;;;;16.30;5.38;;;22.30;99.90;;;;;;5013889;28;20026;-95
2022/08/05 02:09:17;;;;;;;9.70;5.03;;;22.30;99.90;;;;;;5028564;28;20074;-89
2022/08/05 02:11:54;;;;;;;13.85;5.20;;;22.30;99.90;;;;;;5019566;28;20029;-89
2022/08/05 02:14:52;;;;;;;10.50;4.65;;;22.30;99.90;;;;;;5014168;28;20081;-91
2022/08/05 02:17:46;;;;;;;7.88;4.80;;;22.40;99.90;;;;;;4988877;28;20030;-93
2022/08/05 02:20:26;;;;;;;7.57;5.32;;;22.50;99.90;;;;;;4998664;28;20299;-91
2022/08/05 02:23:02;;;;;;;13.45;5.32;;;22.50;99.90;;;;;;4999978;28;20130;-90
2022/08/05 02:25:34;;;;;;;17.65;5.80;;;22.50;99.90;;;;;;5007550;28;20021;-90
2022/08/05 02:28:03;;;;;;;15.10;5.28;;;22.50;99.90;;;;;;5015900;28;20033;-92
2022/08/05 02:30:35;;;;;;;14.68;5.32;;;22.50;99.90;;;;;;5008223;28;20390;-91
2022/08/05 02:33:03;;;;;;;7.88;4.82;;;22.50;99.90;;;;;;5007182;28;20033;-89
2022/08/05 02:35:33;;;;;;;14.98;4.93;;;22.50;99.90;;;;;;5009415;28;20053;-90
2022/08/05 02:38:00;;;;;;;9.40;5.00;;;22.50;99.90;;;;;;4999863;28;20037;-89
2022/08/05 02:40:27;;;;;;;14.05;5.43;;;22.60;99.90;;;;;;5010730;28;20116;-93
2022/08/05 02:42:54;;;;;;;8.95;4.72;;;22.60;99.90;;;;;;4999360;28;20038;-93
2022/08/05 02:45:22;;;;;;;10.93;5.05;;;22.70;99.90;;;;;;5016062;28;20037;-91
2022/08/05 02:47:51;;;;;;;9.35;4.35;;;22.70;99.90;;;;;;5024808;28;20030;-93
2022/08/05 02:50:17;;;;;;;9.27;5.05;;;22.70;99.90;;;;;;5019322;28;20116;-94
2022/08/05 02:52:44;;;;;;;9.38;4.50;;;22.70;99.90;;;;;;5008561;28;20057;-91
2022/08/05 02:55:11;;;;;;;13.57;5.28;;;22.80;99.90;;;;;;5021592;28;20033;-92
2022/08/05 02:57:38;;;;;;;9.77;4.72;;;22.70;99.90;;;;;;5005316;28;20425;-92
2022/08/05 03:00:05;;;;;;;8.38;4.43;;;22.70;99.90;;;;;;5006629;28;20017;-91
2022/08/05 03:02:37;;;;;;;8.07;4.45;;;22.80;99.90;;;;;;5012029;28;20021;-92
2022/08/05 03:05:06;;;;;;;13.45;4.72;;;22.80;99.90;;;;;;5026505;28;20041;-91
2022/08/05 03:07:33;;;;;;;10.27;4.10;;;22.80;99.90;;;;;;5018712;28;20062;-93
2022/08/05 03:09:59;;;;;;;7.50;4.55;;;22.80;99.90;;;;;;5003422;28;20038;-91
2022/08/05 03:12:29;;;;;;;42.20;6.32;;;22.90;99.90;;;;;;5017194;28;20168;-91
2022/08/05 03:14:55;;;;;;;9.70;4.40;;;22.80;99.90;;;;;;5001743;28;20037;-92
2022/08/05 03:17:21;;;;;;;9.48;4.75;;;22.80;99.90;;;;;;5016431;28;20052;-89
2022/08/05 03:19:47;;;;;;;10.88;5.57;;;22.70;99.90;;;;;;5007158;28;20418;-92
2022/08/05 03:22:13;;;;;;;6.78;4.20;;;22.80;99.90;;;;;;5011381;28;20037;-95
2022/08/05 03:24:40;;;;;;;15.05;4.68;;;22.70;99.90;;;;;;5007098;28;20030;-89
2022/08/05 03:27:06;;;;;;;10.02;4.60;;;22.70;99.90;;;;;;5012353;28;20029;-89
2022/08/05 03:29:33;;;;;;;10.40;5.05;;;22.70;99.90;;;;;;5006990;28;20071;-91
2022/08/05 03:31:59;;;;;;;8.27;5.00;;;22.70;99.90;;;;;;5020481;28;20042;-92
2022/08/05 03:34:27;;;;;;;13.57;5.13;;;22.70;99.90;;;;;;5020480;28;20029;-91
2022/08/05 03:36:53;;;;;;;10.93;5.03;;;22.70;99.90;;;;;;5018957;28;20468;-91
2022/08/05 03:39:18;;;;;;;11.82;5.38;;;22.60;99.90;;;;;;5002652;28;20029;-90
2022/08/05 03:41:44;;;;;;;11.30;5.43;;;22.60;99.90;;;;;;5020788;28;20026;-95
2022/08/05 03:44:10;;;;;;;14.82;4.90;;;22.50;99.90;;;;;;5011343;28;20029;-94
2022/08/05 03:46:36;;;;;;;11.50;4.32;;;22.50;99.90;;;;;;5000749;28;20029;-92
2022/08/05 03:49:02;;;;;;;11.13;5.10;;;22.50;99.90;;;;;;5016307;28;20155;-93
2022/08/05 03:51:35;;;;;;;8.15;4.28;;;22.40;99.90;;;;;;5030682;28;20029;-94
2022/08/05 03:57:50;;;;;;;8.27;4.25;;;22.30;99.90;;;;;;5030605;28;20052;-94
2022/08/05 04:00:16;;;;;;;15.40;4.90;;;22.30;99.90;;;;;;5013152;28;20033;-93
2022/08/05 04:02:50;;;;;;;11.90;4.93;;;22.30;99.90;;;;;;5002820;28;20116;-89
2022/08/05 04:05:16;;;;;;;12.90;4.75;;;22.30;99.90;;;;;;5015437;28;20029;-90
2022/08/05 04:07:43;;;;;;;9.82;5.20;;;22.30;99.90;;;;;;5014785;28;20033;-89
2022/08/05 04:10:09;;;;;;;8.50;4.85;;;22.20;99.90;;;;;;5025321;28;21513;-89
2022/08/05 04:12:36;;;;;;;10.93;4.93;;;22.20;99.90;;;;;;5014049;28;20413;-89
2022/08/05 04:15:02;;;;;;;12.98;4.78;;;22.20;99.90;;;;;;5011096;28;20124;-89
2022/08/05 04:17:28;;;;;;;10.00;4.43;;;22.30;99.90;;;;;;5027870;28;20045;-91
2022/08/05 04:19:53;;;;;;;16.05;4.95;;;22.30;99.90;;;;;;5015118;28;20865;-88
2022/08/05 04:22:19;;;;;;;10.63;4.50;;;22.30;99.90;;;;;;5003350;28;20100;-89
2022/08/05 04:24:45;;;;;;;8.60;4.70;;;22.30;99.90;;;;;;5026286;28;20037;-92
2022/08/05 04:27:14;;;;;;;10.32;4.68;;;22.30;99.90;;;;;;5006840;28;20033;-87
2022/08/05 04:29:40;;;;;;;9.88;5.18;;;22.20;99.90;;;;;;5028442;28;20029;-89
2022/08/05 04:32:08;;;;;;;14.85;5.47;;;22.20;99.90;;;;;;5023110;28;20108;-90
2022/08/05 04:34:34;;;;;;;9.93;5.00;;;22.20;99.90;;;;;;5008889;28;20030;-90
2022/08/05 04:37:00;;;;;;;9.23;4.80;;;22.10;99.90;;;;;;5019318;28;20025;-88
2022/08/05 04:39:26;;;;;;;13.43;6.65;;;22.10;99.90;;;;;;5010573;28;20034;-88
2022/08/05 04:41:53;;;;;;;9.73;3.70;;;22.20;99.90;;;;;;5028653;28;20029;-88
2022/08/05 04:44:18;;;;;;;10.32;4.47;;;22.10;99.90;;;;;;5023098;28;20064;-88
2022/08/05 04:46:44;;;;;;;8.73;5.72;;;22.00;99.90;;;;;;5015341;28;20061;-89
2022/08/05 04:49:10;;;;;;;10.68;5.13;;;21.80;99.90;;;;;;5005576;28;20466;-90
2022/08/05 04:51:36;;;;;;;12.05;5.57;;;21.50;99.90;;;;;;5004241;28;20021;-90
2022/08/05 04:54:01;;;;;;;8.73;5.28;;;21.00;99.90;;;;;;5015752;28;20081;-88
2022/08/05 04:56:27;;;;;;;10.00;5.05;;;20.50;99.90;;;;;;5015612;28;20022;-88
2022/08/05 04:58:53;;;;;;;11.88;5.60;;;20.20;99.90;;;;;;5014381;28;20033;-92
2022/08/05 05:01:19;;;;;;;9.77;6.13;;;20.00;99.90;;;;;;5025518;28;20045;-88
2022/08/05 05:03:44;;;;;;;8.23;6.38;;;19.80;99.90;;;;;;5012509;28;20525;-89
2022/08/05 05:06:11;;;;;;;6.63;5.75;;;19.60;99.90;;;;;;5005432;28;20374;-90
2022/08/05 05:08:38;;;;;;;11.15;5.80;;;19.40;99.90;;;;;;5026092;28;20031;-89
2022/08/05 05:11:05;;;;;;;9.90;6.13;;;19.30;99.90;;;;;;5009371;28;20040;-89
2022/08/05 05:13:31;;;;;;;9.90;7.05;;;19.10;99.90;;;;;;5022705;28;20033;-89
2022/08/05 05:15:57;;;;;;;8.30;6.35;;;19.10;99.90;;;;;;5014008;28;20116;-89
2022/08/05 05:18:23;;;;;;;9.15;5.60;;;19.10;99.90;;;;;;5013231;28;20044;-88
2022/08/05 05:20:49;;;;;;;7.80;5.57;;;19.10;99.90;;;;;;5006877;28;20076;-87
2022/08/05 05:23:15;;;;;;;10.35;5.85;;;19.20;99.90;;;;;;5010886;28;20469;-89
2022/08/05 05:25:42;;;;;;;13.13;5.88;;;19.30;99.90;;;;;;4999109;28;20338;-88
2022/08/05 05:28:08;;;;;;;8.15;4.90;;;19.50;99.90;;;;;;5004577;28;20022;-89
2022/08/05 05:30:34;;;;;;;10.88;5.95;;;19.70;99.90;;;;;;5004079;28;20116;-88
2022/08/05 05:33:02;;;;;;;12.32;5.18;;;19.80;99.90;;;;;;5011303;28;20145;-88
2022/08/05 05:35:28;;;;;;;13.82;5.68;;;19.90;99.90;;;;;;5028171;28;20689;-88
2022/08/05 05:37:58;;;;;;;8.80;5.60;;;20.00;99.90;;;;;;5018486;28;20044;-89
2022/08/05 05:40:25;;;;;;;10.70;4.85;;;20.10;99.90;;;;;;5014995;28;20058;-88
2022/08/05 05:42:51;;;;;;;9.00;5.30;;;20.20;99.90;;;;;;5004938;28;20116;-88
2022/08/05 05:45:18;;;;;;;8.95;5.05;;;20.20;99.90;;;;;;5026078;28;20204;-88
2022/08/05 05:47:45;;;;;;;8.00;4.95;;;20.20;99.90;;;;;;5026709;28;20026;-89
2022/08/05 05:50:16;;;;;;;9.80;6.00;;;20.20;99.90;;;;;;5013117;28;20029;-88
2022/08/05 05:52:42;;;;;;;12.75;5.85;;;20.20;99.90;;;;;;5004207;28;20029;-86
2022/08/05 05:55:11;;;;;;;7.97;5.30;;;20.20;99.90;;;;;;5009694;28;20038;-89
2022/08/05 05:57:38;;;;;;;11.48;5.45;;;20.30;99.90;;;;;;5007385;28;20709;-87
2022/08/05 06:00:08;;;;;;;9.77;4.90;;;20.20;99.90;;;;;;5024757;28;20018;-88
2022/08/05 06:02:40;;;;;;;8.38;4.53;;;20.20;99.90;;;;;;5014019;28;20034;-88
2022/08/05 06:05:08;;;;;;;8.05;4.75;;;20.30;99.90;;;;;;5010147;28;20029;-92
2022/08/05 06:07:33;;;;;;;6.65;4.75;;;20.40;99.90;;;;;;5013445;28;20029;-88
2022/08/05 06:09:59;;;;;;;7.72;4.50;;;20.50;99.90;;;;;;5022610;28;20037;-88
2022/08/05 06:12:25;;;;;;;11.48;5.20;;;20.60;99.90;;;;;;5012467;28;20034;-86
2022/08/05 06:14:51;;;;;;;5.95;4.40;;;20.80;99.90;;;;;;5004166;28;20041;-87
2022/08/05 06:17:16;;;;;;;8.00;4.70;;;20.90;99.90;;;;;;5009880;28;20389;-88
2022/08/05 06:19:42;;;;;;;7.28;4.53;;;21.10;99.90;;;;;;5024960;28;20026;-87
2022/08/05 06:22:08;;;;;;;9.02;4.82;;;21.20;99.90;;;;;;5020851;28;20026;-89
2022/08/05 06:24:40;;;;;;;8.95;5.00;;;21.30;99.90;;;;;;5007143;28;20030;-88
2022/08/05 06:27:05;;;;;;;10.07;4.80;;;21.60;99.90;;;;;;5014032;28;20025;-88
2022/08/05 06:29:31;;;;;;;5.38;4.47;;;21.90;99.90;;;;;;5025966;28;20125;-88
2022/08/05 06:31:57;;;;;;;11.73;4.32;;;22.00;99.90;;;;;;5014739;28;20034;-88
2022/08/05 06:34:22;;;;;;;8.25;4.30;;;22.20;99.90;;;;;;5012932;28;20033;-89
2022/08/05 06:36:48;;;;;;;7.68;3.80;;;22.10;99.90;;;;;;5034261;28;20113;-87
2022/08/05 06:39:14;;;;;;;7.97;4.22;;;22.10;99.90;;;;;;5025975;28;20022;-88
2022/08/05 06:41:40;;;;;;;6.97;4.35;;;22.00;99.90;;;;;;5006324;28;20087;-89
2022/08/05 06:44:06;;;;;;;6.78;3.97;;;21.90;99.90;;;;;;5022279;28;20040;-87
2022/08/05 06:46:31;;;;;;;7.43;3.95;;;21.80;99.90;;;;;;5027205;28;20508;-87
2022/08/05 06:48:58;;;;;;;8.95;4.00;;;21.70;99.90;;;;;;5024366;28;20044;-89
2022/08/05 06:51:24;;;;;;;9.25;4.28;;;21.80;99.90;;;;;;5012822;28;20323;-88
2022/08/05 06:53:49;;;;;;;7.82;4.30;;;21.80;99.90;;;;;;5023219;28;20041;-89
2022/08/05 06:56:15;;;;;;;8.80;4.05;;;21.80;99.90;;;;;;5013713;28;20037;-88
2022/08/05 06:58:41;;;;;;;9.18;5.07;;;21.70;99.90;;;;;;5011316;28;20025;-88
2022/08/05 07:01:07;;;;;;;7.28;4.47;;;21.60;99.90;;;;;;5013223;28;20033;-88
2022/08/05 07:03:33;;;;;;;17.67;5.57;;;21.50;99.90;;;;;;5022900;28;20040;-88
2022/08/05 07:06:03;;;;;;;8.57;4.63;;;21.40;99.90;;;;;;5022873;28;20034;-88
2022/08/05 07:08:29;;;;;;;9.88;4.63;;;21.50;99.90;;;;;;5013418;28;20022;-88
2022/08/05 07:10:55;;;;;;;15.07;4.82;;;21.40;99.90;;;;;;5026219;28;20037;-89
2022/08/05 07:18:50;;;;;;;7.55;4.47;;;21.60;99.90;;;;;;5026685;28;20431;-88
2022/08/05 07:21:16;;;;;;;6.93;4.28;;;21.80;99.90;;;;;;5009543;28;20101;-88
2022/08/05 07:23:41;;;;;;;6.50;4.25;;;22.00;99.90;;;;;;5003806;28;20030;-88
2022/08/05 07:26:07;;;;;;;6.93;4.68;;;22.10;99.90;;;;;;5012660;28;20026;-88
2022/08/05 07:28:33;;;;;;;5.93;4.38;;;22.10;99.90;;;;;;5005235;28;20036;-89
2022/08/05 07:30:59;;;;;;;6.53;4.22;;;22.20;99.90;;;;;;5014791;28;20076;-88
2022/08/05 07:33:25;;;;;;;9.55;4.05;;;22.30;99.90;;;;;;5024741;28;20034;-88
2022/08/05 07:35:51;;;;;;;7.68;4.10;;;22.40;99.90;;;;;;5025036;28;20442;-87
2022/08/05 07:38:18;;;;;;;14.88;3.85;;;22.50;99.90;;;;;;5022858;28;20049;-87
2022/08/05 07:40:44;;;;;;;6.28;3.97;;;22.80;99.90;;;;;;5001986;28;20026;-88
2022/08/05 07:43:12;;;;;;;8.18;4.00;;;23.00;99.90;;;;;;5026219;28;20045;-88
2022/08/05 07:45:39;;;;;;;12.45;4.50;;;23.20;99.90;;;;;;5011688;28;20103;-88
2022/08/05 07:48:04;;;;;;;17.48;4.45;;;23.30;99.90;;;;;;5000758;28;20032;-88
2022/08/05 07:50:30;;;;;;;10.23;3.78;;;23.40;99.90;;;;;;5014275;28;20030;-88
2022/08/05 07:52:56;;;;;;;11.35;4.15;;;23.50;99.90;;;;;;5020633;28;20029;-88
2022/08/05 07:55:21;;;;;;;6.72;3.50;;;23.60;99.90;;;;;;5006603;28;20402;-88
2022/08/05 07:57:47;;;;;;;9.68;3.58;;;23.90;99.90;;;;;;5026937;28;20021;-90
2022/08/05 08:00:13;;;;;;;4.38;3.35;;;24.00;99.90;;;;;;5027172;28;20036;-88
2022/08/05 08:02:39;;;;;;;9.80;3.67;;;24.00;99.90;;;;;;5022132;28;20026;-88
2022/08/05 08:05:06;;;;;;;66.18;8.45;;;24.00;99.90;;;;;;5024450;28;20057;-88
2022/08/05 08:07:32;;;;;;;5.65;3.83;;;23.90;99.90;;;;;;5016356;28;20088;-88
2022/08/05 08:09:57;;;;;;;10.70;3.95;;;24.10;99.90;;;;;;5023554;28;20149;-87
2022/08/05 08:12:24;;;;;;;6.80;3.35;;;24.40;99.90;;;;;;5007012;28;20500;-87
2022/08/05 08:14:50;;;;;;;4.90;3.20;;;24.50;99.90;;;;;;5020044;28;20116;-88
2022/08/05 08:17:15;;;;;;;7.30;3.80;;;24.60;99.90;;;;;;5022244;28;20030;-88
2022/08/05 08:19:42;;;;;;;3.78;3.20;;;24.70;99.90;;;;;;5016376;28;20026;-89
2022/08/05 08:22:09;;;;;;;4.28;3.40;;;24.90;99.90;;;;;;5006884;28;20026;-88
2022/08/05 08:24:35;;;;;;;5.78;3.30;;;25.00;99.90;;;;;;4999040;28;20523;-87
2022/08/05 08:27:07;;;;;;;4.65;2.72;;;25.30;99.90;;;;;;5013764;28;20033;-88
2022/08/05 08:29:33;;;;;;;5.10;3.33;;;25.80;99.90;;;;;;5027378;28;20033;-88
2022/08/05 08:31:59;;;;;;;9.82;3.25;;;26.10;99.90;;;;;;5006179;28;20473;-87
2022/08/05 08:34:25;;;;;;;4.65;3.08;;;26.20;99.90;;;;;;5026171;28;20114;-89
2022/08/05 08:36:52;;;;;;;9.20;2.80;;;27.10;99.90;;;;;;5028291;28;20026;-88
2022/08/05 08:39:18;;;;;;;4.00;2.65;;;28.00;99.90;;;;;;5022884;28;20018;-88
2022/08/05 08:41:48;;;;;;;5.15;2.78;;;28.30;99.90;;;;;;5032581;28;20029;-89
2022/08/05 08:44:16;;;;;;;5.32;2.92;;;28.40;99.90;;;;;;5010170;28;20037;-88
2022/08/05 08:46:43;;;;;;;5.78;2.47;;;28.00;99.90;;;;;;5020342;28;20038;-88
2022/08/05 08:49:13;;;;;;;3.53;2.72;;;27.60;99.90;;;;;;5003661;28;20029;-89
2022/08/05 08:51:40;;;;;;;5.57;2.70;;;28.10;99.90;;;;;;5016341;28;20036;-89
2022/08/05 08:54:07;;;;;;;4.15;3.10;;;28.40;99.90;;;;;;5002327;28;20079;-89
2022/08/05 08:56:33;;;;;;;7.25;2.85;;;28.10;99.90;;;;;;5025189;28;20160;-89
2022/08/05 08:59:00;;;;;;;2.80;2.47;;;28.30;99.90;;;;;;5018411;28;20064;-88
2022/08/05 09:01:26;;;;;;;8.95;2.90;;;29.40;99.90;;;;;;5006842;28;20029;-88
2022/08/05 09:03:53;;;;;;;6.72;2.65;;;30.80;99.90;;;;;;5020154;28;20060;-88
2022/08/05 09:06:19;;;;;;;4.38;2.47;;;31.50;98.10;;;;;;5019759;28;20559;-89
2022/08/05 09:08:45;;;;;;;4.93;2.47;;;31.00;96.00;;;;;;5029899;28;20031;-88
2022/08/05 09:11:12;;;;;;;5.38;2.90;;;29.50;96.30;;;;;;4998828;28;20429;-89
2022/08/05 09:13:38;;;;;;;5.97;2.50;;;28.40;98.00;;;;;;5004908;28;20070;-88
2022/08/05 09:16:07;;;;;;;6.30;2.53;;;27.40;99.00;;;;;;5002537;28;20780;-87
2022/08/05 09:18:34;;;;;;;6.75;3.25;;;26.80;99.90;;;;;;5002456;28;20121;-86
2022/08/05 09:21:01;;;;;;;2.97;2.63;;;26.40;99.90;;;;;;5000986;28;20025;-88
2022/08/05 09:23:26;;;;;;;7.55;2.70;;;26.30;99.90;;;;;;5013042;28;20026;-88
2022/08/05 09:26:10;;;;;;;4.75;2.72;;;26.30;99.90;;;;;;5016690;28;20068;-88
2022/08/05 09:28:39;;;;;;;4.60;2.63;;;26.40;99.90;;;;;;5007677;28;20029;-88
2022/08/05 09:31:08;;;;;;;2.90;2.30;;;26.40;99.90;;;;;;5016539;28;20032;-89
2022/08/05 09:34:00;;;;;;;3.75;2.20;;;27.10;99.90;;;;;;5016734;28;20025;-88
2022/08/05 09:36:47;;;;;;;6.70;2.40;;;29.60;98.60;;;;;;5009181;28;20036;-89
2022/08/05 09:39:13;;;;;;;3.17;2.25;;;32.10;94.70;;;;;;5011683;28;20093;-89
2022/08/05 09:42:02;;;;;;;7.20;2.65;;;32.00;92.00;;;;;;5024453;28;20032;-87
2022/08/05 09:44:43;;;;;;;3.88;2.33;;;30.40;92.20;;;;;;5005975;28;20034;-88
2022/08/05 09:47:13;;;;;;;;;;;29.80;93.00;;;;;;5016371;28;20030;-89
2022/08/05 09:49:50;;;;;;;5.07;2.40;;;29.70;93.40;;;;;;5019539;28;19923;-90
2022/08/05 09:52:19;;;;;;;7.47;2.50;;;29.60;93.90;;;;;;5021170;28;20030;-87
2022/08/05 09:55:12;;;;;;;6.88;2.28;;;29.00;93.30;;;;;;5014207;28;20029;-88
2022/08/05 09:57:39;;;;;;;4.63;2.50;;;28.20;94.20;;;;;;5025504;28;20033;-89
2022/08/05 10:00:13;;;;;;;3.55;2.38;;;27.70;95.10;;;;;;5004242;28;20026;-88
2022/08/05 10:02:41;;;;;;;9.70;2.53;;;27.40;96.30;;;;;;5006761;28;20022;-88
2022/08/05 10:05:22;;;;;;;2.90;2.45;;;27.50;96.50;;;;;;5012095;28;20033;-88
2022/08/05 10:07:51;;;;;;;;;;;27.80;96.30;;;;;;5009662;28;20381;-88
2022/08/05 10:10:44;;;;;;;3.83;2.85;;;27.60;95.80;;;;;;5015191;28;19995;-88
2022/08/05 10:13:10;;;;;;;3.17;2.38;;;27.90;96.00;;;;;;5005803;28;20033;-88
2022/08/05 10:15:38;;;;;;;4.43;2.70;;;28.60;95.30;;;;;;5007905;28;20034;-88
2022/08/05 10:18:12;;;;;;;5.15;2.60;;;28.90;95.20;;;;;;5022432;28;20042;-89
2022/08/05 10:20:56;;;;;;;4.57;2.30;;;28.90;94.70;;;;;;5029128;28;20026;-89
2022/08/05 10:23:24;;;;;;;5.45;2.95;;;28.70;94.90;;;;;;5007069;28;20516;-91
2022/08/05 10:25:50;;;;;;;4.28;2.67;;;28.80;95.50;;;;;;5013032;28;20077;-88
2022/08/05 10:28:17;;;;;;;5.75;2.58;;;29.10;94.50;;;;;;5024599;28;20025;-87
2022/08/05 10:30:43;;;;;;;3.42;2.33;;;29.00;94.80;;;;;;5015094;28;20022;-89
2022/08/05 10:33:09;;;;;;;2.53;2.33;;;29.10;94.80;;;;;;5022341;28;20474;-88
2022/08/05 10:35:35;;;;;;;4.60;2.35;;;29.20;94.30;;;;;;5024246;28;20025;-88
2022/08/05 10:38:03;;;;;;;6.50;2.47;;;29.40;94.20;;;;;;5017072;28;20026;-90
2022/08/05 10:40:31;;;;;;;4.97;2.83;;;29.40;93.50;;;;;;5027561;28;20025;-89
2022/08/05 10:43:06;;;;;;;4.10;2.53;;;29.40;93.80;;;;;;5022550;28;20820;-89
2022/08/05 10:45:54;;;;;;;2.90;2.63;;;29.40;93.60;;;;;;5029379;28;20080;-89
2022/08/05 10:48:38;;;;;;;4.15;2.65;;;29.60;93.40;;;;;;5017814;28;20033;-88
2022/08/05 10:51:13;;;;;;;2.67;2.05;;;29.80;93.00;;;;;;5001079;28;20092;-89
2022/08/05 10:53:40;;;;;;;5.70;2.30;;;30.50;92.40;;;;;;5014121;28;20837;-87
2022/08/05 10:56:17;;;;;;;5.82;2.35;;;30.80;90.20;;;;;;5023480;28;20101;-90
2022/08/05 10:58:53;;;;;;;7.93;2.42;;;30.40;90.60;;;;;;5027648;28;20041;-88
2022/08/05 11:01:35;;;;;;;7.43;2.55;;;30.50;90.10;;;;;;5022114;28;20029;-89
2022/08/05 11:04:36;;;;;;;2.72;2.08;;;30.60;88.30;;;;;;5020064;28;20116;-89
2022/08/05 11:07:03;;;;;;;;;;;30.10;89.60;;;;;;4959153;28;20073;-89
2022/08/05 11:09:42;;;;;;;4.32;2.65;;;30.30;89.80;;;;;;5005249;28;20012;-88
2022/08/05 11:12:41;;;;;;;2.42;1.83;;;30.10;89.60;;;;;;5000053;28;20030;-89
2022/08/05 11:15:07;;;;;;;5.38;2.10;;;30.40;90.20;;;;;;5017867;28;20060;-89
2022/08/05 11:17:37;;;;;;;4.70;2.47;;;30.70;88.80;;;;;;5017024;28;20035;-88
2022/08/05 11:20:27;;;;;;;2.43;2.00;;;30.80;87.40;;;;;;5007549;28;20040;-88
2022/08/05 11:22:53;;;;;;;3.00;2.00;;;30.50;87.20;;;;;;5023050;28;20030;-87
2022/08/05 11:25:47;;;;;;;5.28;2.20;;;30.50;87.20;;;;;;5019406;28;20534;-88
2022/08/05 11:28:13;;;;;;;3.13;1.98;;;30.20;87.10;;;;;;5021841;28;20060;-87
2022/08/05 11:31:11;;;;;;;3.83;2.15;;;30.60;86.90;;;;;;5005288;28;20064;-89
2022/08/05 11:33:50;;;;;;;6.13;2.35;;;31.10;86.50;;;;;;4977741;28;20041;-88
2022/08/05 11:36:37;;;;;;;5.25;2.33;;;31.40;85.30;;;;;;5001450;28;20030;-88
2022/08/05 11:39:03;;;;;;;2.92;2.05;;;31.40;84.90;;;;;;5019727;28;20616;-88
2022/08/05 11:41:34;;;;;;;5.03;2.55;;;31.40;84.70;;;;;;4998974;28;20025;-90
2022/08/05 11:44:05;;;;;;;38.45;22.30;;;31.60;85.00;;;;;;5003222;28;20044;-87
2022/08/05 11:46:52;;;;;;;6.95;3.72;;;31.60;84.10;;;;;;5003211;28;20389;-88
2022/08/05 11:49:19;;;;;;;2.72;2.20;;;31.50;83.80;;;;;;5009832;28;20116;-87
2022/08/05 11:51:47;;;;;;;5.15;2.35;;;31.10;84.10;;;;;;5019912;28;20029;-87
2022/08/05 11:54:24;;;;;;;3.88;2.20;;;31.20;85.10;;;;;;5023597;28;20051;-88
2022/08/05 11:56:53;;;;;;;2.95;2.30;;;31.40;83.90;;;;;;5019447;28;20033;-87
2022/08/05 11:59:27;;;;;;;4.82;2.67;;;31.20;83.40;;;;;;5012323;28;20073;-89
2022/08/05 12:02:26;;;;;;;4.63;2.80;;;30.80;84.10;;;;;;5018228;28;20485;-88
2022/08/05 12:04:52;;;;;;;5.93;2.63;;;30.40;85.80;;;;;;5017529;28;20101;-88
2022/08/05 12:07:18;;;;;;;2.75;2.35;;;30.40;87.20;;;;;;5025191;28;20456;-90
2022/08/05 12:09:51;;;;;;;5.32;2.30;;;30.70;86.10;;;;;;5013706;28;20026;-91
2022/08/05 12:12:24;;;;;;;9.35;2.80;;;30.50;87.00;;;;;;5026119;28;20021;-88
2022/08/05 12:14:51;;;;;;;3.88;2.83;;;30.30;87.40;;;;;;5007220;28;20169;-89
2022/08/05 12:17:17;;;;;;;2.53;2.30;;;30.50;87.10;;;;;;5013045;28;20456;-89
2022/08/05 12:19:44;;;;;;;6.18;2.47;;;30.20;86.60;;;;;;5015811;28;20033;-88
2022/08/05 12:22:11;;;;;;;3.65;2.47;;;30.10;86.50;;;;;;5016303;28;20029;-88
2022/08/05 12:24:49;;;;;;;4.80;2.70;;;30.00;87.80;;;;;;5002723;28;20767;-89
2022/08/05 12:27:30;;;;;;;4.82;2.80;;;29.90;88.20;;;;;;5007281;28;20036;-87
2022/08/05 12:30:09;;;;;;;6.00;2.70;;;29.70;87.50;;;;;;5007292;28;20037;-88
2022/08/05 12:32:45;;;;;;;4.88;2.67;;;29.70;88.50;;;;;;5021884;28;20026;-89
2022/08/05 12:35:14;;;;;;;3.22;2.92;;;29.60;89.10;;;;;;5021695;28;20037;-89
2022/08/05 12:37:41;;;;;;;5.22;3.15;;;29.60;88.20;;;;;;5022290;28;20052;-88
2022/08/05 12:40:09;;;;;;;3.42;2.55;;;29.40;89.10;;;;;;5008460;28;20021;-91
2022/08/05 12:42:35;;;;;;;6.15;2.78;;;29.60;89.50;;;;;;5001021;28;20030;-89
2022/08/05 12:45:10;;;;;;;6.20;3.15;;;30.60;88.70;;;;;;5012452;28;20061;-87
2022/08/05 12:47:37;;;;;;;5.90;2.85;;;30.80;88.70;;;;;;5014456;28;20048;-89
2022/08/05 12:50:16;;;;;;;4.40;2.70;;;30.30;89.20;;;;;;5003085;28;20133;-89
2022/08/05 12:52:58;;;;;;;4.47;2.92;;;29.70;90.10;;;;;;5001704;28;20833;-89
2022/08/05 12:55:29;;;;;;;5.80;2.90;;;29.20;90.30;;;;;;5023596;28;20029;-88
2022/08/05 12:57:56;;;;;;;3.72;3.42;;;29.20;91.30;;;;;;5026668;28;20040;-88
2022/08/05 13:00:24;;;;;;;3.85;3.33;;;29.20;91.50;;;;;;5011726;28;20025;-88
2022/08/05 13:02:52;;;;;;;7.07;4.25;;;28.90;91.70;;;;;;5013073;28;20025;-89
2022/08/05 13:05:18;;;;;;;6.65;3.25;;;28.40;91.80;;;;;;5024135;28;20021;-88
2022/08/05 13:07:45;;;;;;;5.35;2.90;;;28.10;92.40;;;;;;5028296;28;20036;-89